Onate, Spain
Current Conditions -  °F | °C
As of 2:30 PM on Thursday 23 Oct 2014 (Local Time) from LEVT Reporting Station
Clear Clear  
Wind Chill: 66°   Ceiling: Unl
Heat Index: 66°   Visibility: 6mi
Dew Point: 41°   Wind: 0mph
Humidity: 40%   Direction: NA
Pressure: 30.27"   Gusts: NA
Location:  43.03°N, 2.41°W
Report Text: LEVT 231230Z 00000KT CAVOK 19/05 Q1025
Loading
Personal Weather Stations






























Interactive Weather Map
Tropical Storm Tracking
New forecast layout! Learn more

10-Day Weather Forecast

Advertisements
Track Severe Weather on mobile